createdAt,value
2023-02-06T00:04:24.447Z,9.17
2023-02-06T00:06:59.379Z,8.67
2023-02-06T00:09:29.591Z,8.83
2023-02-06T00:11:57.087Z,9.43
2023-02-06T00:14:27.634Z,9.67
2023-02-06T00:16:58.495Z,9.17
2023-02-06T00:19:27.438Z,9.83
2023-02-06T00:21:58.092Z,9.40
2023-02-06T00:24:29.783Z,9.47
2023-02-06T00:27:02.586Z,9.40
2023-02-06T00:29:43.269Z,9.53
2023-02-06T00:32:14.768Z,9.87
2023-02-06T00:34:44.706Z,10.23
2023-02-06T00:37:21.111Z,9.43
2023-02-06T00:39:49.532Z,9.33
2023-02-06T00:42:20.858Z,10.20
2023-02-06T00:44:52.674Z,9.60
2023-02-06T00:47:21.340Z,9.47
2023-02-06T00:49:48.826Z,9.40
2023-02-06T00:52:21.984Z,9.53
2023-02-06T00:54:52.000Z,8.67
2023-02-06T00:57:19.420Z,9.20
2023-02-06T00:59:50.455Z,9.30
2023-02-06T01:02:18.434Z,9.17
2023-02-06T01:04:48.951Z,8.70
2023-02-06T01:07:25.199Z,8.73
2023-02-06T01:09:56.107Z,8.60
2023-02-06T01:12:29.847Z,8.57
2023-02-06T01:14:57.430Z,8.97
2023-02-06T01:17:25.721Z,9.00
2023-02-06T01:19:58.222Z,8.63
2023-02-06T01:22:29.158Z,9.13
2023-02-06T01:24:58.018Z,8.00
2023-02-06T01:27:28.823Z,8.87
2023-02-06T01:30:07.589Z,8.40
2023-02-06T01:32:39.992Z,8.70
2023-02-06T01:35:13.495Z,8.90
2023-02-06T01:37:56.134Z,8.53
2023-02-06T01:40:27.382Z,8.13
2023-02-06T01:42:54.430Z,8.43
2023-02-06T01:45:42.955Z,9.07
2023-02-06T01:48:34.956Z,8.53
2023-02-06T01:51:03.705Z,8.43
2023-02-06T01:53:36.986Z,8.30
2023-02-06T01:56:12.794Z,8.30
2023-02-06T01:58:46.742Z,8.20
2023-02-06T02:01:18.620Z,8.00
2023-02-06T02:03:51.536Z,7.93
2023-02-06T02:06:28.590Z,8.70
2023-02-06T02:09:03.155Z,8.60
2023-02-06T02:11:41.605Z,8.63
2023-02-06T02:14:14.101Z,8.70
2023-02-06T02:16:55.606Z,8.10
2023-02-06T02:20:08.106Z,8.23
2023-02-06T02:23:21.623Z,7.97
2023-02-06T02:26:21.366Z,7.43
2023-02-06T02:29:14.618Z,8.80
2023-02-06T02:32:13.474Z,8.17
2023-02-06T02:35:00.264Z,8.53
2023-02-06T02:38:05.967Z,8.60
2023-02-06T02:40:59.378Z,9.23
2023-02-06T02:43:50.530Z,8.47
2023-02-06T02:46:44.514Z,8.50
2023-02-06T02:49:30.513Z,8.30
2023-02-06T02:52:00.587Z,8.83
2023-02-06T02:54:33.162Z,8.63
2023-02-06T02:57:24.529Z,9.07
2023-02-06T02:59:55.193Z,9.23
2023-02-06T03:02:34.973Z,9.40
2023-02-06T03:05:14.269Z,8.90
2023-02-06T03:08:28.423Z,9.67
2023-02-06T03:11:24.789Z,9.10
2023-02-06T03:14:30.291Z,9.33
2023-02-06T03:17:09.009Z,9.00
2023-02-06T03:19:54.183Z,8.80
2023-02-06T03:22:30.300Z,9.00
2023-02-06T03:25:10.146Z,8.83
2023-02-06T03:27:43.295Z,9.03
2023-02-06T03:30:21.450Z,8.43
2023-02-06T03:33:00.504Z,8.67
2023-02-06T03:35:38.094Z,8.83
2023-02-06T03:38:08.472Z,8.43
2023-02-06T03:40:41.442Z,8.33
2023-02-06T03:43:16.331Z,8.87
2023-02-06T03:45:50.461Z,9.20
2023-02-06T03:48:50.849Z,9.07
2023-02-06T03:51:37.909Z,9.67
2023-02-06T03:54:13.424Z,9.60
2023-02-06T03:56:55.653Z,9.93
2023-02-06T03:59:32.015Z,9.43
2023-02-06T04:02:07.020Z,8.97
2023-02-06T04:04:42.359Z,9.90
2023-02-06T04:07:31.133Z,9.13
2023-02-06T04:10:00.710Z,10.40
2023-02-06T04:12:35.381Z,9.60
2023-02-06T04:15:04.956Z,10.00
2023-02-06T04:17:49.707Z,8.87
2023-02-06T04:20:23.632Z,9.37
2023-02-06T04:22:58.438Z,9.13
2023-02-06T04:25:27.382Z,8.93
2023-02-06T04:27:59.909Z,9.03
2023-02-06T04:30:32.680Z,9.13
2023-02-06T04:33:09.451Z,9.07
2023-02-06T04:35:38.822Z,9.23
2023-02-06T04:38:07.394Z,9.10
2023-02-06T04:40:34.696Z,9.43
2023-02-06T04:43:02.740Z,9.00
2023-02-06T04:45:34.855Z,9.43
2023-02-06T04:48:05.265Z,10.30
2023-02-06T04:50:37.827Z,10.20
2023-02-06T04:53:09.082Z,9.73
2023-02-06T04:55:39.924Z,9.30
2023-02-06T04:58:11.266Z,9.97
2023-02-06T05:00:41.402Z,9.27
2023-02-06T05:03:09.736Z,9.27
2023-02-06T05:05:40.738Z,9.20
2023-02-06T05:08:13.778Z,9.87
2023-02-06T05:10:46.298Z,9.57
2023-02-06T05:13:17.264Z,9.10
2023-02-06T05:15:45.580Z,9.10
2023-02-06T05:18:17.420Z,9.43
2023-02-06T05:20:50.937Z,8.60
2023-02-06T05:23:26.006Z,9.37
2023-02-06T05:25:53.696Z,8.67
2023-02-06T05:28:25.216Z,9.23
2023-02-06T05:30:56.165Z,9.30
2023-02-06T05:33:29.277Z,8.80
2023-02-06T05:36:10.934Z,9.00
2023-02-06T05:38:42.870Z,9.70
2023-02-06T05:41:10.676Z,9.20
2023-02-06T05:43:38.335Z,9.07
2023-02-06T05:46:09.871Z,9.30
2023-02-06T05:48:41.418Z,9.47
2023-02-06T05:51:14.607Z,9.83
2023-02-06T05:53:46.102Z,9.30
2023-02-06T05:56:15.155Z,9.67
2023-02-06T05:58:43.872Z,9.57
2023-02-06T06:01:17.497Z,9.40
2023-02-06T06:03:48.349Z,9.93
2023-02-06T06:06:22.961Z,10.13
2023-02-06T06:08:53.006Z,9.53
2023-02-06T06:11:22.813Z,10.23
2023-02-06T06:13:55.810Z,9.60
2023-02-06T06:16:28.619Z,9.83
2023-02-06T06:19:06.373Z,10.00
2023-02-06T06:21:38.056Z,9.33
2023-02-06T06:24:09.515Z,9.67
2023-02-06T06:26:40.304Z,9.30
2023-02-06T06:29:12.582Z,9.87
2023-02-06T06:31:46.172Z,9.40
2023-02-06T06:34:20.583Z,10.17
2023-02-06T06:36:52.304Z,10.23
2023-02-06T06:39:23.640Z,10.07
2023-02-06T06:41:53.866Z,10.00
2023-02-06T06:44:24.125Z,9.80
2023-02-06T06:46:56.241Z,10.63
2023-02-06T06:49:29.854Z,10.20
2023-02-06T06:52:01.884Z,10.13
2023-02-06T06:54:31.380Z,9.73
2023-02-06T06:57:05.210Z,10.07
2023-02-06T06:59:36.717Z,9.50
2023-02-06T07:02:10.117Z,9.83
2023-02-06T07:04:44.692Z,10.50
2023-02-06T07:07:19.449Z,9.77
2023-02-06T07:09:50.055Z,9.63
2023-02-06T07:12:23.064Z,9.40
2023-02-06T07:14:54.226Z,9.90
2023-02-06T07:17:25.428Z,9.80
2023-02-06T07:19:56.756Z,10.13
2023-02-06T07:22:28.552Z,10.90
2023-02-06T07:24:56.924Z,11.00
2023-02-06T07:27:28.322Z,10.10
2023-02-06T07:29:58.271Z,10.30
2023-02-06T07:32:33.654Z,10.50
2023-02-06T07:35:03.409Z,10.30
2023-02-06T07:37:30.872Z,9.70
2023-02-06T07:40:03.130Z,10.43
2023-02-06T07:42:36.210Z,10.40
2023-02-06T07:45:19.031Z,10.53
2023-02-06T07:47:50.221Z,10.33
2023-02-06T07:50:19.996Z,10.47
2023-02-06T07:52:51.042Z,11.53
2023-02-06T07:55:22.263Z,10.90
2023-02-06T07:58:03.356Z,10.80
2023-02-06T08:00:31.890Z,11.37
2023-02-06T08:02:59.814Z,11.33
2023-02-06T08:05:31.524Z,11.17
2023-02-06T08:08:01.436Z,12.97
2023-02-06T08:10:31.580Z,10.47
2023-02-06T08:13:08.156Z,10.80
2023-02-06T08:15:38.438Z,11.23
2023-02-06T08:18:12.374Z,10.83
2023-02-06T08:20:46.483Z,11.43
2023-02-06T08:23:15.036Z,10.27
2023-02-06T08:25:52.536Z,10.33
2023-02-06T08:31:13.771Z,15.13
2023-02-06T08:33:41.695Z,11.87
2023-02-06T08:36:14.123Z,12.53
2023-02-06T08:38:46.341Z,12.60
2023-02-06T08:41:32.955Z,12.40
2023-02-06T08:44:02.504Z,10.80
2023-02-06T08:47:09.215Z,11.50
2023-02-06T08:49:48.710Z,10.47
2023-02-06T08:52:22.001Z,11.33
2023-02-06T08:54:53.851Z,12.50
2023-02-06T08:57:27.083Z,12.70
2023-02-06T08:59:55.694Z,12.50
2023-02-06T09:02:27.348Z,11.53
2023-02-06T09:04:58.204Z,10.63
2023-02-06T09:07:29.241Z,10.03
2023-02-06T09:10:00.320Z,11.17
2023-02-06T09:12:29.707Z,9.90
2023-02-06T09:15:01.288Z,10.97
2023-02-06T09:17:33.757Z,10.43
2023-02-06T09:20:06.027Z,9.70
2023-02-06T09:22:38.877Z,11.07
2023-02-06T09:25:12.359Z,22.87
2023-02-06T09:27:50.087Z,13.40
2023-02-06T09:30:19.247Z,16.83
2023-02-06T09:32:49.161Z,14.50
2023-02-06T09:35:18.284Z,20.80
2023-02-06T09:37:52.763Z,13.30
2023-02-06T09:40:29.491Z,14.70
2023-02-06T09:43:00.814Z,12.37
2023-02-06T09:45:34.849Z,11.63
2023-02-06T09:48:36.450Z,11.90
2023-02-06T09:51:22.780Z,12.40
2023-02-06T09:54:18.717Z,12.00
2023-02-06T09:57:24.329Z,10.73
2023-02-06T10:00:13.987Z,11.47
2023-02-06T10:03:24.055Z,10.37
2023-02-06T10:06:20.364Z,10.30
2023-02-06T10:13:06.648Z,11.00
2023-02-06T10:15:50.900Z,10.07
2023-02-06T10:18:36.494Z,10.27
2023-02-06T10:21:48.443Z,10.30
2023-02-06T10:24:46.929Z,9.97
2023-02-06T10:27:17.875Z,9.30
2023-02-06T10:29:48.457Z,10.07
2023-02-06T10:32:42.418Z,10.23
2023-02-06T10:35:43.663Z,9.03
2023-02-06T10:38:30.468Z,12.37
2023-02-06T10:41:27.359Z,9.67
2023-02-06T10:44:46.429Z,10.17
2023-02-06T10:47:45.084Z,10.17
2023-02-06T10:50:37.482Z,11.30
2023-02-06T10:53:22.448Z,10.93
2023-02-06T10:56:01.835Z,8.87
2023-02-06T10:58:35.898Z,9.93
2023-02-06T11:01:23.640Z,10.17
2023-02-06T11:04:28.053Z,9.47
2023-02-06T11:07:04.534Z,9.10
2023-02-06T11:09:37.120Z,8.77
2023-02-06T11:12:06.228Z,8.63
2023-02-06T11:14:41.530Z,9.53
2023-02-06T11:17:11.570Z,9.10
2023-02-06T11:19:44.975Z,8.50
2023-02-06T11:22:51.104Z,8.30
2023-02-06T11:25:36.999Z,8.40
2023-02-06T11:28:16.399Z,7.20
2023-02-06T11:31:11.569Z,6.37
2023-02-06T11:34:01.263Z,6.80
2023-02-06T11:36:53.310Z,7.67
2023-02-06T11:39:43.066Z,7.20
2023-02-06T11:42:27.461Z,6.80
2023-02-06T11:45:00.631Z,6.90
2023-02-06T11:47:50.085Z,7.07
2023-02-06T11:50:43.949Z,7.20
2023-02-06T11:53:20.832Z,7.73
2023-02-06T11:56:17.434Z,7.40
2023-02-06T11:58:48.524Z,7.63
2023-02-06T12:01:24.816Z,7.10
2023-02-06T12:04:34.440Z,7.40
2023-02-06T12:07:30.392Z,7.73
2023-02-06T12:10:07.425Z,7.83
2023-02-06T12:12:41.053Z,7.47
2023-02-06T12:15:46.694Z,7.80
2023-02-06T12:18:24.732Z,8.47
2023-02-06T12:21:22.962Z,7.80
2023-02-06T12:24:11.002Z,7.90
2023-02-06T12:26:45.375Z,7.90
2023-02-06T12:29:40.352Z,7.77
2023-02-06T12:32:19.051Z,8.30
2023-02-06T12:34:58.061Z,8.00
2023-02-06T12:37:57.428Z,8.03
2023-02-06T12:40:54.123Z,8.57
2023-02-06T12:43:24.208Z,8.00
2023-02-06T12:46:17.416Z,9.00
2023-02-06T12:49:07.950Z,8.77
2023-02-06T12:51:59.349Z,8.67
2023-02-06T12:54:34.862Z,8.60
2023-02-06T12:57:21.260Z,8.93
2023-02-06T13:00:16.674Z,8.80
2023-02-06T13:03:07.554Z,9.00
2023-02-06T13:05:49.211Z,9.00
2023-02-06T13:08:59.260Z,9.30
2023-02-06T13:11:43.717Z,9.53
2023-02-06T13:14:30.357Z,9.30
2023-02-06T13:17:15.248Z,12.37
2023-02-06T13:19:50.547Z,10.77
2023-02-06T13:22:36.497Z,9.33
2023-02-06T13:25:53.437Z,9.53
2023-02-06T13:28:46.026Z,10.17
2023-02-06T13:31:30.402Z,9.83
2023-02-06T13:34:03.587Z,9.00
2023-02-06T13:36:54.553Z,9.63
2023-02-06T13:39:30.398Z,10.03
2023-02-06T13:42:26.453Z,10.00
2023-02-06T13:44:54.044Z,10.87
2023-02-06T13:47:44.786Z,10.70
2023-02-06T13:50:48.494Z,11.40
2023-02-06T13:53:59.085Z,10.70
2023-02-06T13:57:09.783Z,10.20
2023-02-06T14:00:05.207Z,10.77
2023-02-06T14:03:06.879Z,10.27
2023-02-06T14:06:02.578Z,10.07
2023-02-06T14:09:09.211Z,8.63
2023-02-06T14:12:33.072Z,8.50
2023-02-06T14:15:23.822Z,9.13
2023-02-06T14:18:20.307Z,8.87
2023-02-06T14:21:26.744Z,9.20
2023-02-06T14:24:15.749Z,11.37
2023-02-06T14:27:29.279Z,9.77
2023-02-06T14:30:21.579Z,14.97
2023-02-06T14:33:28.737Z,17.10
2023-02-06T14:36:14.499Z,14.07
2023-02-06T14:39:24.336Z,10.00
2023-02-06T14:41:57.271Z,9.73
2023-02-06T14:44:31.043Z,10.93
2023-02-06T14:47:01.667Z,10.00
2023-02-06T14:49:39.681Z,8.33
2023-02-06T14:52:22.077Z,10.00
2023-02-06T14:54:52.448Z,8.83
2023-02-06T14:57:42.212Z,9.00
2023-02-06T15:00:24.110Z,7.97
2023-02-06T15:03:26.477Z,8.27
2023-02-06T15:06:22.020Z,7.73
2023-02-06T15:08:54.392Z,7.30
2023-02-06T15:11:33.046Z,7.57
2023-02-06T15:14:19.483Z,7.23
2023-02-06T15:16:53.497Z,7.47
2023-02-06T15:19:35.753Z,7.07
2023-02-06T15:22:20.636Z,7.57
2023-02-06T15:25:27.582Z,8.10
2023-02-06T15:28:13.576Z,7.67
2023-02-06T15:30:44.007Z,8.00
2023-02-06T15:33:25.105Z,7.57
2023-02-06T15:36:01.123Z,7.53
2023-02-06T15:38:33.347Z,7.97
2023-02-06T15:41:07.211Z,8.90
2023-02-06T15:43:39.693Z,8.13
2023-02-06T15:46:11.348Z,8.20
2023-02-06T15:49:01.590Z,8.03
2023-02-06T15:51:56.368Z,7.93
2023-02-06T15:57:41.106Z,7.63
2023-02-06T16:00:26.239Z,7.77
2023-02-06T16:03:02.138Z,7.67
2023-02-06T16:05:38.633Z,7.97
2023-02-06T16:08:22.012Z,7.93
2023-02-06T16:10:59.946Z,7.60
2023-02-06T16:13:39.690Z,7.20
2023-02-06T16:16:33.831Z,7.90
2023-02-06T16:19:02.119Z,8.87
2023-02-06T16:21:35.387Z,8.10
2023-02-06T16:24:21.306Z,8.27
2023-02-06T16:26:52.686Z,8.30
2023-02-06T16:29:38.789Z,7.70
2023-02-06T16:32:46.362Z,8.97
2023-02-06T16:35:14.929Z,7.97
2023-02-06T16:37:42.152Z,7.90
2023-02-06T16:40:12.155Z,11.97
2023-02-06T16:42:49.280Z,12.13
2023-02-06T16:45:29.237Z,11.27
2023-02-06T16:48:00.907Z,11.03
2023-02-06T16:50:41.485Z,10.97
2023-02-06T16:53:29.811Z,10.53
2023-02-06T16:56:01.402Z,9.83
2023-02-06T16:58:35.956Z,10.30
2023-02-06T17:01:14.987Z,10.03
2023-02-06T17:03:45.498Z,9.60
2023-02-06T17:06:21.798Z,9.77
2023-02-06T17:08:55.322Z,10.50
2023-02-06T17:11:27.796Z,9.90
2023-02-06T17:14:00.796Z,10.07
2023-02-06T17:16:37.918Z,10.17
2023-02-06T17:19:06.342Z,10.13
2023-02-06T17:21:38.733Z,9.67
2023-02-06T17:24:06.489Z,9.97
2023-02-06T17:26:38.143Z,10.17
2023-02-06T17:29:09.125Z,11.50
2023-02-06T17:31:42.864Z,12.10
2023-02-06T17:34:13.800Z,11.67
2023-02-06T17:36:48.657Z,12.60
2023-02-06T17:39:20.544Z,12.43
2023-02-06T17:41:51.024Z,12.80
2023-02-06T17:44:24.679Z,12.70
2023-02-06T17:46:54.453Z,12.90
2023-02-06T17:49:30.606Z,13.20
2023-02-06T17:52:01.987Z,12.53
2023-02-06T17:54:37.481Z,12.03
2023-02-06T17:57:12.516Z,11.83
2023-02-06T17:59:46.598Z,13.03
2023-02-06T18:02:22.884Z,12.67
2023-02-06T18:04:58.959Z,13.90
2023-02-06T18:07:28.945Z,13.17
2023-02-06T18:10:11.050Z,13.73
2023-02-06T18:12:42.848Z,12.73
2023-02-06T18:15:22.980Z,11.93
2023-02-06T18:17:56.725Z,13.33
2023-02-06T18:20:35.551Z,12.33
2023-02-06T18:23:12.883Z,12.47
2023-02-06T18:25:44.321Z,12.70
2023-02-06T18:28:40.745Z,11.83
2023-02-06T18:31:47.685Z,12.30
2023-02-06T18:34:20.745Z,12.60
2023-02-06T18:37:03.497Z,12.13
2023-02-06T18:39:37.154Z,12.70
2023-02-06T18:42:29.279Z,13.47
2023-02-06T18:45:11.798Z,13.00
2023-02-06T18:47:49.723Z,12.43
2023-02-06T18:50:27.671Z,11.70
2023-02-06T18:53:07.945Z,12.23
2023-02-06T18:55:41.509Z,11.60
2023-02-06T18:58:13.607Z,12.40
2023-02-06T19:00:46.019Z,12.57
2023-02-06T19:03:21.567Z,13.70
2023-02-06T19:06:10.572Z,13.27
2023-02-06T19:08:48.017Z,12.73
2023-02-06T19:11:25.312Z,12.60
2023-02-06T19:14:00.339Z,13.97
2023-02-06T19:16:38.018Z,14.07
2023-02-06T19:19:10.840Z,13.43
2023-02-06T19:21:40.059Z,13.20
2023-02-06T19:29:47.575Z,14.87
2023-02-06T19:32:24.695Z,14.50
2023-02-06T19:34:58.401Z,15.47
2023-02-06T19:37:30.913Z,16.33
2023-02-06T19:40:03.709Z,14.70
2023-02-06T19:42:35.604Z,14.10
2023-02-06T19:45:07.617Z,14.07
2023-02-06T19:47:40.149Z,13.23
2023-02-06T19:50:15.339Z,13.10
2023-02-06T19:52:49.460Z,13.03
2023-02-06T19:55:24.441Z,12.67
2023-02-06T19:58:00.924Z,13.30
2023-02-06T20:00:36.117Z,14.13
2023-02-06T20:03:10.076Z,14.57
2023-02-06T20:05:48.072Z,14.70
2023-02-06T20:08:19.131Z,15.00
2023-02-06T20:10:57.355Z,14.33
2023-02-06T20:13:41.989Z,15.53
2023-02-06T20:16:37.915Z,16.90
2023-02-06T20:19:31.133Z,15.80
2023-02-06T20:22:02.286Z,16.30
2023-02-06T20:24:48.007Z,16.50
2023-02-06T20:27:21.764Z,16.70
2023-02-06T20:29:57.062Z,15.87
2023-02-06T20:32:30.786Z,16.70
2023-02-06T20:35:07.255Z,16.30
2023-02-06T20:37:48.175Z,17.07
2023-02-06T20:40:23.362Z,15.93
2023-02-06T20:42:51.752Z,16.10
2023-02-06T20:45:23.388Z,15.43
2023-02-06T20:47:51.097Z,16.10
2023-02-06T20:50:21.415Z,15.57
2023-02-06T20:52:52.740Z,16.27
2023-02-06T20:55:22.586Z,16.73
2023-02-06T20:57:54.105Z,17.47
2023-02-06T21:00:29.660Z,18.37
2023-02-06T21:02:58.762Z,17.40
2023-02-06T21:05:32.721Z,16.93
2023-02-06T21:08:04.369Z,17.67
2023-02-06T21:10:34.028Z,18.17
2023-02-06T21:13:03.478Z,17.67
2023-02-06T21:15:37.412Z,17.43
2023-02-06T21:18:14.726Z,18.13
2023-02-06T21:20:52.445Z,17.17
2023-02-06T21:23:22.458Z,16.97
2023-02-06T21:25:56.560Z,15.70
2023-02-06T21:28:27.736Z,15.73
2023-02-06T21:31:04.853Z,16.50
2023-02-06T21:33:39.710Z,16.83
2023-02-06T21:36:08.975Z,16.60
2023-02-06T21:38:41.857Z,16.20
2023-02-06T21:41:17.185Z,15.80
2023-02-06T21:43:46.988Z,15.77
2023-02-06T21:46:18.198Z,16.03
2023-02-06T21:48:55.256Z,14.87
2023-02-06T21:51:23.970Z,16.90
2023-02-06T21:53:54.046Z,17.80
2023-02-06T21:56:33.539Z,17.60
2023-02-06T22:01:43.831Z,16.13
2023-02-06T22:04:21.529Z,15.63
2023-02-06T22:06:55.754Z,15.83
2023-02-06T22:09:25.466Z,16.10
2023-02-06T22:11:56.738Z,15.93
2023-02-06T22:17:10.461Z,16.07
2023-02-06T22:19:46.249Z,15.87
2023-02-06T22:22:16.033Z,16.00
2023-02-06T22:24:44.687Z,16.60
2023-02-06T22:27:13.724Z,15.10
2023-02-06T22:29:44.240Z,14.80
2023-02-06T22:32:16.966Z,15.47
2023-02-06T22:34:46.179Z,15.30
2023-02-06T22:37:15.969Z,16.23
2023-02-06T22:39:46.982Z,16.23
2023-02-06T22:42:15.847Z,16.33
2023-02-06T22:44:47.093Z,16.43
2023-02-06T22:47:17.652Z,18.13
2023-02-06T22:50:03.935Z,17.37
2023-02-06T22:52:54.022Z,16.90
2023-02-06T22:55:25.417Z,18.20
2023-02-06T22:57:57.529Z,18.37
2023-02-06T23:00:24.791Z,18.23
2023-02-06T23:02:56.342Z,20.63
2023-02-06T23:05:26.348Z,20.40
2023-02-06T23:07:57.251Z,18.23
2023-02-06T23:10:33.035Z,16.70
2023-02-06T23:13:02.857Z,15.50
2023-02-06T23:15:32.665Z,15.83
2023-02-06T23:18:03.003Z,16.63
2023-02-06T23:20:33.838Z,17.30
2023-02-06T23:23:01.637Z,16.07
2023-02-06T23:25:36.115Z,16.90
2023-02-06T23:28:08.331Z,18.73
2023-02-06T23:30:40.451Z,19.17
2023-02-06T23:33:13.066Z,19.27
2023-02-06T23:35:41.314Z,17.47
2023-02-06T23:38:11.746Z,17.10
2023-02-06T23:40:41.121Z,18.93
2023-02-06T23:43:10.055Z,19.73
2023-02-06T23:45:39.439Z,19.87
2023-02-06T23:48:08.114Z,19.90
2023-02-06T23:50:39.281Z,18.43
2023-02-06T23:53:09.934Z,18.33
2023-02-06T23:55:43.148Z,17.90
2023-02-06T23:58:15.528Z,18.70
